Terminal Aerodrome Forecast
Issued by NWS Sioux Falls, SD

Home | Current Version | Previous Version | Text Only | Print | Product List | Glossary On
Versions: 1 2 3 4 5 6 7 8 9 10 11 12 13 14
000
FTUS43 KFSD 230546 CCA
TAFFSD
TAF COR
KFSD 230546Z 2306/2406 34010KT P6SM BKN110
     FM231300 01003KT P6SM BKN130
     FM231600 08005KT P6SM BKN035
     FM232000 08007KT P6SM VCTS BKN050CB
     FM240000 07005KT P6SM OVC035
     FM240200 11007KT P6SM OVC050
     FM240500 13011KT P6SM BKN070=

USA.gov is the U.S. government's official web portal to all federal, state and local government web resources and services.